sensor_id;sensor_type;location;lat;lon;timestamp;P1;durP1;ratioP1;P2;durP2;ratioP2
74269;SDS011;62754;48.252;11.654;2023-11-18T00:01:30;7.43;;;3.60;;
74269;SDS011;62754;48.252;11.654;2023-11-18T00:04:00;6.55;;;4.00;;
74269;SDS011;62754;48.252;11.654;2023-11-18T00:06:26;8.13;;;4.00;;
74269;SDS011;62754;48.252;11.654;2023-11-18T00:08:53;7.05;;;4.18;;
74269;SDS011;62754;48.252;11.654;2023-11-18T00:11:19;5.72;;;3.47;;
74269;SDS011;62754;48.252;11.654;2023-11-18T00:13:45;7.13;;;3.90;;
74269;SDS011;62754;48.252;11.654;2023-11-18T00:16:11;7.80;;;3.97;;
74269;SDS011;62754;48.252;11.654;2023-11-18T00:18:40;7.22;;;3.67;;
74269;SDS011;62754;48.252;11.654;2023-11-18T00:21:06;6.75;;;3.88;;
74269;SDS011;62754;48.252;11.654;2023-11-18T00:23:33;6.93;;;3.85;;
74269;SDS011;62754;48.252;11.654;2023-11-18T00:25:59;7.13;;;3.80;;
74269;SDS011;62754;48.252;11.654;2023-11-18T00:28:25;5.97;;;3.58;;
74269;SDS011;62754;48.252;11.654;2023-11-18T00:30:51;6.50;;;3.97;;
74269;SDS011;62754;48.252;11.654;2023-11-18T00:33:17;4.85;;;3.22;;
74269;SDS011;62754;48.252;11.654;2023-11-18T00:35:43;5.47;;;3.83;;
74269;SDS011;62754;48.252;11.654;2023-11-18T00:38:10;5.50;;;3.15;;
74269;SDS011;62754;48.252;11.654;2023-11-18T00:40:36;5.57;;;3.15;;
74269;SDS011;62754;48.252;11.654;2023-11-18T00:43:02;5.75;;;3.60;;
74269;SDS011;62754;48.252;11.654;2023-11-18T00:45:28;5.53;;;3.38;;
74269;SDS011;62754;48.252;11.654;2023-11-18T00:47:54;5.95;;;3.47;;
74269;SDS011;62754;48.252;11.654;2023-11-18T00:50:20;5.65;;;3.50;;
74269;SDS011;62754;48.252;11.654;2023-11-18T00:52:46;6.57;;;4.07;;
74269;SDS011;62754;48.252;11.654;2023-11-18T00:55:13;6.97;;;3.67;;
74269;SDS011;62754;48.252;11.654;2023-11-18T00:57:39;6.50;;;3.70;;
74269;SDS011;62754;48.252;11.654;2023-11-18T01:00:08;5.43;;;3.25;;
74269;SDS011;62754;48.252;11.654;2023-11-18T01:02:43;6.55;;;3.75;;
74269;SDS011;62754;48.252;11.654;2023-11-18T01:05:11;7.63;;;3.70;;
74269;SDS011;62754;48.252;11.654;2023-11-18T01:07:38;6.57;;;4.07;;
74269;SDS011;62754;48.252;11.654;2023-11-18T01:10:05;6.32;;;3.70;;
74269;SDS011;62754;48.252;11.654;2023-11-18T01:12:32;6.00;;;3.75;;
74269;SDS011;62754;48.252;11.654;2023-11-18T01:14:58;6.32;;;4.00;;
74269;SDS011;62754;48.252;11.654;2023-11-18T01:17:24;7.03;;;3.78;;
74269;SDS011;62754;48.252;11.654;2023-11-18T01:19:50;5.45;;;3.60;;
74269;SDS011;62754;48.252;11.654;2023-11-18T01:22:16;6.70;;;3.90;;
74269;SDS011;62754;48.252;11.654;2023-11-18T01:24:43;6.05;;;3.55;;
74269;SDS011;62754;48.252;11.654;2023-11-18T01:32:04;6.43;;;3.53;;
74269;SDS011;62754;48.252;11.654;2023-11-18T01:34:37;6.28;;;3.28;;
74269;SDS011;62754;48.252;11.654;2023-11-18T01:37:04;5.78;;;3.38;;
74269;SDS011;62754;48.252;11.654;2023-11-18T01:39:32;4.95;;;3.28;;
74269;SDS011;62754;48.252;11.654;2023-11-18T01:42:01;5.10;;;3.40;;
74269;SDS011;62754;48.252;11.654;2023-11-18T01:44:30;5.63;;;3.33;;
74269;SDS011;62754;48.252;11.654;2023-11-18T01:46:58;5.53;;;3.53;;
74269;SDS011;62754;48.252;11.654;2023-11-18T01:49:30;4.93;;;3.20;;
74269;SDS011;62754;48.252;11.654;2023-11-18T01:51:57;5.70;;;3.30;;
74269;SDS011;62754;48.252;11.654;2023-11-18T01:54:26;5.90;;;3.58;;
74269;SDS011;62754;48.252;11.654;2023-11-18T01:56:53;5.68;;;3.53;;
74269;SDS011;62754;48.252;11.654;2023-11-18T01:59:20;5.78;;;3.40;;
74269;SDS011;62754;48.252;11.654;2023-11-18T02:04:13;5.35;;;2.95;;
74269;SDS011;62754;48.252;11.654;2023-11-18T02:06:40;6.35;;;3.65;;
74269;SDS011;62754;48.252;11.654;2023-11-18T02:09:06;6.00;;;3.60;;
74269;SDS011;62754;48.252;11.654;2023-11-18T02:11:43;5.50;;;3.20;;
74269;SDS011;62754;48.252;11.654;2023-11-18T02:14:17;5.03;;;2.95;;
74269;SDS011;62754;48.252;11.654;2023-11-18T02:16:47;5.70;;;3.35;;
74269;SDS011;62754;48.252;11.654;2023-11-18T02:19:24;5.53;;;3.30;;
74269;SDS011;62754;48.252;11.654;2023-11-18T02:21:52;5.68;;;3.30;;
74269;SDS011;62754;48.252;11.654;2023-11-18T02:24:28;4.95;;;2.92;;
74269;SDS011;62754;48.252;11.654;2023-11-18T02:29:29;5.70;;;2.85;;
74269;SDS011;62754;48.252;11.654;2023-11-18T02:34:40;4.55;;;2.83;;
74269;SDS011;62754;48.252;11.654;2023-11-18T02:37:13;4.28;;;2.75;;
74269;SDS011;62754;48.252;11.654;2023-11-18T02:39:39;5.15;;;2.70;;
74269;SDS011;62754;48.252;11.654;2023-11-18T02:42:09;5.07;;;2.75;;
74269;SDS011;62754;48.252;11.654;2023-11-18T02:44:37;5.50;;;2.90;;
74269;SDS011;62754;48.252;11.654;2023-11-18T02:47:04;5.45;;;3.20;;
74269;SDS011;62754;48.252;11.654;2023-11-18T02:49:30;4.97;;;2.58;;
74269;SDS011;62754;48.252;11.654;2023-11-18T02:51:57;4.85;;;2.72;;
74269;SDS011;62754;48.252;11.654;2023-11-18T02:54:23;6.53;;;2.78;;
74269;SDS011;62754;48.252;11.654;2023-11-18T02:56:49;4.72;;;2.80;;
74269;SDS011;62754;48.252;11.654;2023-11-18T02:59:15;5.32;;;2.85;;
74269;SDS011;62754;48.252;11.654;2023-11-18T03:01:42;5.15;;;2.95;;
74269;SDS011;62754;48.252;11.654;2023-11-18T03:04:08;4.68;;;3.10;;
74269;SDS011;62754;48.252;11.654;2023-11-18T03:06:35;4.95;;;2.85;;
74269;SDS011;62754;48.252;11.654;2023-11-18T03:09:01;5.45;;;2.80;;
74269;SDS011;62754;48.252;11.654;2023-11-18T03:11:28;4.90;;;3.17;;
74269;SDS011;62754;48.252;11.654;2023-11-18T03:13:58;5.90;;;3.33;;
74269;SDS011;62754;48.252;11.654;2023-11-18T03:16:24;4.97;;;2.97;;
74269;SDS011;62754;48.252;11.654;2023-11-18T03:18:50;4.35;;;2.60;;
74269;SDS011;62754;48.252;11.654;2023-11-18T03:21:16;4.53;;;2.85;;
74269;SDS011;62754;48.252;11.654;2023-11-18T03:23:44;5.22;;;3.00;;
74269;SDS011;62754;48.252;11.654;2023-11-18T03:26:10;5.30;;;2.78;;
74269;SDS011;62754;48.252;11.654;2023-11-18T03:28:36;5.05;;;3.15;;
74269;SDS011;62754;48.252;11.654;2023-11-18T03:31:03;5.53;;;3.10;;
74269;SDS011;62754;48.252;11.654;2023-11-18T03:33:30;5.15;;;2.97;;
74269;SDS011;62754;48.252;11.654;2023-11-18T03:35:56;4.85;;;3.03;;
74269;SDS011;62754;48.252;11.654;2023-11-18T03:38:22;5.20;;;3.25;;
74269;SDS011;62754;48.252;11.654;2023-11-18T03:40:48;5.05;;;3.05;;
74269;SDS011;62754;48.252;11.654;2023-11-18T03:43:15;5.15;;;2.80;;
74269;SDS011;62754;48.252;11.654;2023-11-18T03:45:41;5.45;;;2.85;;
74269;SDS011;62754;48.252;11.654;2023-11-18T03:48:07;5.80;;;3.08;;
74269;SDS011;62754;48.252;11.654;2023-11-18T03:50:33;4.63;;;2.60;;
74269;SDS011;62754;48.252;11.654;2023-11-18T03:53:00;4.75;;;3.28;;
74269;SDS011;62754;48.252;11.654;2023-11-18T03:55:29;4.78;;;2.70;;
74269;SDS011;62754;48.252;11.654;2023-11-18T03:57:55;5.15;;;3.03;;
74269;SDS011;62754;48.252;11.654;2023-11-18T04:00:22;4.55;;;2.50;;
74269;SDS011;62754;48.252;11.654;2023-11-18T04:02:55;4.40;;;2.63;;
74269;SDS011;62754;48.252;11.654;2023-11-18T04:05:24;4.95;;;2.85;;
74269;SDS011;62754;48.252;11.654;2023-11-18T04:07:50;4.88;;;2.97;;
74269;SDS011;62754;48.252;11.654;2023-11-18T04:10:16;4.93;;;3.10;;
74269;SDS011;62754;48.252;11.654;2023-11-18T04:12:43;4.93;;;2.83;;
74269;SDS011;62754;48.252;11.654;2023-11-18T04:15:13;4.47;;;2.65;;
74269;SDS011;62754;48.252;11.654;2023-11-18T04:20:06;4.20;;;2.33;;
74269;SDS011;62754;48.252;11.654;2023-11-18T04:22:41;4.95;;;2.70;;
74269;SDS011;62754;48.252;11.654;2023-11-18T04:25:08;4.55;;;2.90;;
74269;SDS011;62754;48.252;11.654;2023-11-18T04:27:37;4.68;;;2.58;;
74269;SDS011;62754;48.252;11.654;2023-11-18T04:30:04;4.45;;;2.65;;
74269;SDS011;62754;48.252;11.654;2023-11-18T04:32:30;4.28;;;2.75;;
74269;SDS011;62754;48.252;11.654;2023-11-18T04:34:57;4.00;;;2.58;;
74269;SDS011;62754;48.252;11.654;2023-11-18T04:37:24;4.72;;;2.80;;
74269;SDS011;62754;48.252;11.654;2023-11-18T04:39:51;5.60;;;2.92;;
74269;SDS011;62754;48.252;11.654;2023-11-18T04:42:17;5.72;;;3.40;;
74269;SDS011;62754;48.252;11.654;2023-11-18T04:44:43;5.55;;;3.45;;
74269;SDS011;62754;48.252;11.654;2023-11-18T04:47:09;5.00;;;3.22;;
74269;SDS011;62754;48.252;11.654;2023-11-18T04:49:36;5.10;;;3.28;;
74269;SDS011;62754;48.252;11.654;2023-11-18T04:52:02;6.00;;;3.10;;
74269;SDS011;62754;48.252;11.654;2023-11-18T04:54:28;5.65;;;3.50;;
74269;SDS011;62754;48.252;11.654;2023-11-18T04:56:54;5.47;;;3.45;;
74269;SDS011;62754;48.252;11.654;2023-11-18T04:59:20;6.03;;;3.53;;
74269;SDS011;62754;48.252;11.654;2023-11-18T05:01:46;5.15;;;3.38;;
74269;SDS011;62754;48.252;11.654;2023-11-18T05:04:12;5.28;;;3.20;;
74269;SDS011;62754;48.252;11.654;2023-11-18T05:06:38;5.10;;;3.40;;
74269;SDS011;62754;48.252;11.654;2023-11-18T05:09:04;5.32;;;3.20;;
74269;SDS011;62754;48.252;11.654;2023-11-18T05:11:33;5.07;;;3.25;;
74269;SDS011;62754;48.252;11.654;2023-11-18T05:13:59;5.20;;;3.50;;
74269;SDS011;62754;48.252;11.654;2023-11-18T05:16:25;5.53;;;3.50;;
74269;SDS011;62754;48.252;11.654;2023-11-18T05:18:51;5.40;;;3.58;;
74269;SDS011;62754;48.252;11.654;2023-11-18T05:21:17;5.55;;;3.45;;
74269;SDS011;62754;48.252;11.654;2023-11-18T05:23:43;4.55;;;3.10;;
74269;SDS011;62754;48.252;11.654;2023-11-18T05:26:09;6.75;;;3.67;;
74269;SDS011;62754;48.252;11.654;2023-11-18T05:28:35;5.70;;;3.65;;
74269;SDS011;62754;48.252;11.654;2023-11-18T05:31:01;5.15;;;3.45;;
74269;SDS011;62754;48.252;11.654;2023-11-18T05:33:27;6.85;;;4.00;;
74269;SDS011;62754;48.252;11.654;2023-11-18T05:35:54;5.22;;;3.22;;
74269;SDS011;62754;48.252;11.654;2023-11-18T05:38:20;6.97;;;3.85;;
74269;SDS011;62754;48.252;11.654;2023-11-18T05:40:51;5.13;;;3.30;;
74269;SDS011;62754;48.252;11.654;2023-11-18T05:43:24;5.45;;;3.40;;
74269;SDS011;62754;48.252;11.654;2023-11-18T05:45:55;7.63;;;3.50;;
74269;SDS011;62754;48.252;11.654;2023-11-18T05:48:43;5.00;;;3.20;;
74269;SDS011;62754;48.252;11.654;2023-11-18T05:51:10;6.25;;;3.78;;
74269;SDS011;62754;48.252;11.654;2023-11-18T05:53:43;5.82;;;3.90;;
74269;SDS011;62754;48.252;11.654;2023-11-18T05:56:10;5.20;;;3.15;;
74269;SDS011;62754;48.252;11.654;2023-11-18T05:58:37;5.95;;;3.40;;
74269;SDS011;62754;48.252;11.654;2023-11-18T06:01:08;6.15;;;3.78;;
74269;SDS011;62754;48.252;11.654;2023-11-18T06:03:35;6.65;;;3.50;;
74269;SDS011;62754;48.252;11.654;2023-11-18T06:06:04;5.68;;;3.55;;
74269;SDS011;62754;48.252;11.654;2023-11-18T06:08:37;5.20;;;3.28;;
74269;SDS011;62754;48.252;11.654;2023-11-18T06:11:09;5.85;;;3.67;;
74269;SDS011;62754;48.252;11.654;2023-11-18T06:13:42;5.75;;;3.45;;
74269;SDS011;62754;48.252;11.654;2023-11-18T06:18:44;5.70;;;3.22;;
74269;SDS011;62754;48.252;11.654;2023-11-18T06:21:11;5.75;;;3.63;;
74269;SDS011;62754;48.252;11.654;2023-11-18T06:23:41;6.57;;;3.53;;
74269;SDS011;62754;48.252;11.654;2023-11-18T06:26:08;7.15;;;3.88;;
74269;SDS011;62754;48.252;11.654;2023-11-18T06:28:41;5.75;;;3.50;;
74269;SDS011;62754;48.252;11.654;2023-11-18T06:31:08;5.45;;;3.53;;
74269;SDS011;62754;48.252;11.654;2023-11-18T06:33:40;8.38;;;3.42;;
74269;SDS011;62754;48.252;11.654;2023-11-18T06:38:38;6.60;;;3.58;;
74269;SDS011;62754;48.252;11.654;2023-11-18T06:41:05;5.72;;;3.20;;
74269;SDS011;62754;48.252;11.654;2023-11-18T06:43:35;6.90;;;3.90;;
74269;SDS011;62754;48.252;11.654;2023-11-18T06:46:24;5.75;;;3.47;;
74269;SDS011;62754;48.252;11.654;2023-11-18T06:48:59;6.57;;;3.58;;
74269;SDS011;62754;48.252;11.654;2023-11-18T06:51:29;6.20;;;3.30;;
74269;SDS011;62754;48.252;11.654;2023-11-18T06:53:57;6.88;;;3.80;;
74269;SDS011;62754;48.252;11.654;2023-11-18T06:56:26;5.97;;;3.50;;
74269;SDS011;62754;48.252;11.654;2023-11-18T06:58:55;5.78;;;3.28;;
74269;SDS011;62754;48.252;11.654;2023-11-18T07:01:22;6.15;;;3.50;;
74269;SDS011;62754;48.252;11.654;2023-11-18T07:03:48;5.72;;;3.30;;
74269;SDS011;62754;48.252;11.654;2023-11-18T07:06:18;6.03;;;3.15;;
74269;SDS011;62754;48.252;11.654;2023-11-18T07:08:50;6.45;;;3.20;;
74269;SDS011;62754;48.252;11.654;2023-11-18T07:11:17;5.65;;;3.00;;
74269;SDS011;62754;48.252;11.654;2023-11-18T07:13:49;5.13;;;2.83;;
74269;SDS011;62754;48.252;11.654;2023-11-18T07:16:21;5.78;;;3.22;;
74269;SDS011;62754;48.252;11.654;2023-11-18T07:18:48;6.07;;;3.20;;
74269;SDS011;62754;48.252;11.654;2023-11-18T07:21:14;6.35;;;3.42;;
74269;SDS011;62754;48.252;11.654;2023-11-18T07:23:39;7.00;;;3.40;;
74269;SDS011;62754;48.252;11.654;2023-11-18T07:26:07;5.38;;;3.20;;
74269;SDS011;62754;48.252;11.654;2023-11-18T07:28:34;5.22;;;2.83;;
74269;SDS011;62754;48.252;11.654;2023-11-18T07:31:01;6.45;;;3.45;;
74269;SDS011;62754;48.252;11.654;2023-11-18T07:33:30;5.43;;;3.05;;
74269;SDS011;62754;48.252;11.654;2023-11-18T07:35:57;5.72;;;3.13;;
74269;SDS011;62754;48.252;11.654;2023-11-18T07:38:23;7.53;;;3.30;;
74269;SDS011;62754;48.252;11.654;2023-11-18T07:40:51;5.65;;;3.05;;
74269;SDS011;62754;48.252;11.654;2023-11-18T07:43:21;6.43;;;3.45;;
74269;SDS011;62754;48.252;11.654;2023-11-18T07:45:48;6.25;;;3.30;;
74269;SDS011;62754;48.252;11.654;2023-11-18T07:48:20;5.15;;;2.92;;
74269;SDS011;62754;48.252;11.654;2023-11-18T07:50:46;5.10;;;3.10;;
74269;SDS011;62754;48.252;11.654;2023-11-18T07:53:13;6.18;;;3.25;;
74269;SDS011;62754;48.252;11.654;2023-11-18T07:55:39;4.95;;;2.90;;
74269;SDS011;62754;48.252;11.654;2023-11-18T07:58:05;5.95;;;3.40;;
74269;SDS011;62754;48.252;11.654;2023-11-18T08:00:44;5.47;;;3.08;;
74269;SDS011;62754;48.252;11.654;2023-11-18T08:03:10;7.95;;;3.42;;
74269;SDS011;62754;48.252;11.654;2023-11-18T08:05:40;6.30;;;2.75;;
74269;SDS011;62754;48.252;11.654;2023-11-18T08:08:08;5.63;;;2.88;;
74269;SDS011;62754;48.252;11.654;2023-11-18T08:13:05;6.22;;;3.08;;
74269;SDS011;62754;48.252;11.654;2023-11-18T08:15:33;5.40;;;2.75;;
74269;SDS011;62754;48.252;11.654;2023-11-18T08:18:11;5.38;;;2.50;;
74269;SDS011;62754;48.252;11.654;2023-11-18T08:20:37;4.95;;;2.67;;
74269;SDS011;62754;48.252;11.654;2023-11-18T08:23:03;5.40;;;2.75;;
74269;SDS011;62754;48.252;11.654;2023-11-18T08:25:30;5.70;;;2.85;;
74269;SDS011;62754;48.252;11.654;2023-11-18T08:27:58;4.97;;;2.42;;
74269;SDS011;62754;48.252;11.654;2023-11-18T08:30:25;4.00;;;2.50;;
74269;SDS011;62754;48.252;11.654;2023-11-18T08:32:51;7.65;;;2.78;;
74269;SDS011;62754;48.252;11.654;2023-11-18T08:35:17;4.90;;;2.60;;
74269;SDS011;62754;48.252;11.654;2023-11-18T08:37:43;4.18;;;2.40;;
74269;SDS011;62754;48.252;11.654;2023-11-18T08:40:11;5.45;;;2.95;;
74269;SDS011;62754;48.252;11.654;2023-11-18T08:42:47;5.15;;;2.65;;
74269;SDS011;62754;48.252;11.654;2023-11-18T08:45:18;6.90;;;2.95;;
74269;SDS011;62754;48.252;11.654;2023-11-18T08:47:47;4.72;;;2.50;;
74269;SDS011;62754;48.252;11.654;2023-11-18T08:50:14;5.03;;;2.40;;
74269;SDS011;62754;48.252;11.654;2023-11-18T08:52:42;4.50;;;2.55;;
74269;SDS011;62754;48.252;11.654;2023-11-18T08:55:14;5.82;;;3.33;;
74269;SDS011;62754;48.252;11.654;2023-11-18T08:57:48;4.50;;;2.58;;
74269;SDS011;62754;48.252;11.654;2023-11-18T09:00:25;6.35;;;3.00;;
74269;SDS011;62754;48.252;11.654;2023-11-18T09:05:59;4.95;;;2.58;;
74269;SDS011;62754;48.252;11.654;2023-11-18T09:08:32;5.57;;;2.80;;
74269;SDS011;62754;48.252;11.654;2023-11-18T09:11:07;4.25;;;2.50;;
74269;SDS011;62754;48.252;11.654;2023-11-18T09:13:42;3.83;;;2.20;;
74269;SDS011;62754;48.252;11.654;2023-11-18T09:16:10;4.47;;;2.40;;
74269;SDS011;62754;48.252;11.654;2023-11-18T09:18:40;4.38;;;2.28;;
74269;SDS011;62754;48.252;11.654;2023-11-18T09:21:08;3.40;;;1.90;;
74269;SDS011;62754;48.252;11.654;2023-11-18T09:23:39;5.60;;;3.60;;
74269;SDS011;62754;48.252;11.654;2023-11-18T09:26:06;3.50;;;2.00;;
74269;SDS011;62754;48.252;11.654;2023-11-18T09:28:33;4.70;;;2.20;;
74269;SDS011;62754;48.252;11.654;2023-11-18T09:31:03;5.38;;;2.17;;
74269;SDS011;62754;48.252;11.654;2023-11-18T09:33:36;3.10;;;1.92;;
74269;SDS011;62754;48.252;11.654;2023-11-18T09:36:05;5.07;;;1.90;;
74269;SDS011;62754;48.252;11.654;2023-11-18T09:38:33;3.17;;;1.63;;
74269;SDS011;62754;48.252;11.654;2023-11-18T09:41:05;3.65;;;2.00;;
74269;SDS011;62754;48.252;11.654;2023-11-18T09:43:36;5.32;;;1.85;;
74269;SDS011;62754;48.252;11.654;2023-11-18T09:46:13;3.53;;;1.48;;
74269;SDS011;62754;48.252;11.654;2023-11-18T09:48:52;3.30;;;1.42;;
74269;SDS011;62754;48.252;11.654;2023-11-18T09:51:25;2.70;;;1.33;;
74269;SDS011;62754;48.252;11.654;2023-11-18T09:53:58;2.58;;;1.50;;
74269;SDS011;62754;48.252;11.654;2023-11-18T09:56:31;3.15;;;1.63;;
74269;SDS011;62754;48.252;11.654;2023-11-18T09:59:21;3.08;;;1.63;;
74269;SDS011;62754;48.252;11.654;2023-11-18T10:01:56;4.47;;;1.98;;
74269;SDS011;62754;48.252;11.654;2023-11-18T10:04:23;3.25;;;1.67;;
74269;SDS011;62754;48.252;11.654;2023-11-18T10:06:53;3.50;;;1.65;;
74269;SDS011;62754;48.252;11.654;2023-11-18T10:09:21;4.63;;;2.63;;
74269;SDS011;62754;48.252;11.654;2023-11-18T10:12:02;3.75;;;1.92;;
74269;SDS011;62754;48.252;11.654;2023-11-18T10:14:35;3.00;;;1.88;;
74269;SDS011;62754;48.252;11.654;2023-11-18T10:17:04;2.75;;;1.58;;
74269;SDS011;62754;48.252;11.654;2023-11-18T10:22:25;4.38;;;2.00;;
74269;SDS011;62754;48.252;11.654;2023-11-18T10:24:52;3.58;;;1.98;;
74269;SDS011;62754;48.252;11.654;2023-11-18T10:29:58;3.10;;;1.95;;
74269;SDS011;62754;48.252;11.654;2023-11-18T10:32:28;3.60;;;1.70;;
74269;SDS011;62754;48.252;11.654;2023-11-18T10:34:57;3.38;;;2.13;;
74269;SDS011;62754;48.252;11.654;2023-11-18T10:37:26;2.88;;;1.52;;
74269;SDS011;62754;48.252;11.654;2023-11-18T10:39:55;3.08;;;1.50;;
74269;SDS011;62754;48.252;11.654;2023-11-18T10:42:22;3.33;;;1.58;;
74269;SDS011;62754;48.252;11.654;2023-11-18T10:44:55;2.75;;;1.60;;
74269;SDS011;62754;48.252;11.654;2023-11-18T10:47:23;3.63;;;1.60;;
74269;SDS011;62754;48.252;11.654;2023-11-18T10:49:51;2.15;;;1.25;;
74269;SDS011;62754;48.252;11.654;2023-11-18T10:52:20;3.10;;;1.50;;
74269;SDS011;62754;48.252;11.654;2023-11-18T10:54:51;3.70;;;1.52;;
74269;SDS011;62754;48.252;11.654;2023-11-18T10:57:19;3.70;;;1.30;;
74269;SDS011;62754;48.252;11.654;2023-11-18T11:02:45;2.75;;;1.63;;
74269;SDS011;62754;48.252;11.654;2023-11-18T11:05:30;2.33;;;1.30;;
74269;SDS011;62754;48.252;11.654;2023-11-18T11:07:57;2.90;;;1.33;;
74269;SDS011;62754;48.252;11.654;2023-11-18T11:10:27;2.00;;;1.00;;
74269;SDS011;62754;48.252;11.654;2023-11-18T11:12:54;2.53;;;1.15;;
74269;SDS011;62754;48.252;11.654;2023-11-18T11:15:30;1.50;;;0.90;;
74269;SDS011;62754;48.252;11.654;2023-11-18T11:18:07;2.92;;;1.30;;
74269;SDS011;62754;48.252;11.654;2023-11-18T11:20:39;2.10;;;0.85;;
74269;SDS011;62754;48.252;11.654;2023-11-18T11:26:01;4.20;;;2.25;;
74269;SDS011;62754;48.252;11.654;2023-11-18T11:31:40;3.22;;;0.90;;
74269;SDS011;62754;48.252;11.654;2023-11-18T11:34:14;2.00;;;1.00;;
74269;SDS011;62754;48.252;11.654;2023-11-18T11:36:49;2.58;;;0.93;;
74269;SDS011;62754;48.252;11.654;2023-11-18T11:39:17;2.47;;;0.88;;
74269;SDS011;62754;48.252;11.654;2023-11-18T11:41:51;2.42;;;0.80;;
74269;SDS011;62754;48.252;11.654;2023-11-18T11:44:19;1.85;;;0.70;;
74269;SDS011;62754;48.252;11.654;2023-11-18T11:46:48;2.38;;;0.60;;
74269;SDS011;62754;48.252;11.654;2023-11-18T11:49:22;1.58;;;0.77;;
74269;SDS011;62754;48.252;11.654;2023-11-18T11:52:15;2.35;;;0.85;;
74269;SDS011;62754;48.252;11.654;2023-11-18T11:54:58;3.33;;;1.00;;
74269;SDS011;62754;48.252;11.654;2023-11-18T11:57:28;1.30;;;0.60;;
74269;SDS011;62754;48.252;11.654;2023-11-18T12:02:20;2.50;;;0.80;;
74269;SDS011;62754;48.252;11.654;2023-11-18T12:04:51;1.67;;;0.75;;
74269;SDS011;62754;48.252;11.654;2023-11-18T12:07:22;2.13;;;0.90;;
74269;SDS011;62754;48.252;11.654;2023-11-18T12:09:50;1.42;;;0.68;;
74269;SDS011;62754;48.252;11.654;2023-11-18T12:12:22;1.40;;;0.77;;
74269;SDS011;62754;48.252;11.654;2023-11-18T12:17:25;1.38;;;0.60;;
74269;SDS011;62754;48.252;11.654;2023-11-18T12:19:57;2.55;;;0.60;;
74269;SDS011;62754;48.252;11.654;2023-11-18T12:23:02;1.95;;;0.85;;
74269;SDS011;62754;48.252;11.654;2023-11-18T12:25:39;6.10;;;2.92;;
74269;SDS011;62754;48.252;11.654;2023-11-18T12:28:14;1.75;;;0.70;;
74269;SDS011;62754;48.252;11.654;2023-11-18T12:30:42;2.58;;;0.80;;
74269;SDS011;62754;48.252;11.654;2023-11-18T12:33:24;2.63;;;1.05;;
74269;SDS011;62754;48.252;11.654;2023-11-18T12:41:34;2.22;;;0.98;;
74269;SDS011;62754;48.252;11.654;2023-11-18T12:44:15;2.28;;;1.00;;
74269;SDS011;62754;48.252;11.654;2023-11-18T12:46:52;2.72;;;1.00;;
74269;SDS011;62754;48.252;11.654;2023-11-18T12:49:23;4.72;;;1.88;;
74269;SDS011;62754;48.252;11.654;2023-11-18T12:51:53;3.42;;;1.65;;
74269;SDS011;62754;48.252;11.654;2023-11-18T12:54:24;3.25;;;1.02;;
74269;SDS011;62754;48.252;11.654;2023-11-18T12:56:55;2.10;;;0.85;;
74269;SDS011;62754;48.252;11.654;2023-11-18T12:59:21;2.33;;;1.00;;
74269;SDS011;62754;48.252;11.654;2023-11-18T13:01:48;2.53;;;0.88;;
74269;SDS011;62754;48.252;11.654;2023-11-18T13:04:21;1.70;;;0.70;;
74269;SDS011;62754;48.252;11.654;2023-11-18T13:06:49;3.88;;;1.45;;
74269;SDS011;62754;48.252;11.654;2023-11-18T13:09:19;2.08;;;0.80;;
74269;SDS011;62754;48.252;11.654;2023-11-18T13:11:57;2.17;;;0.93;;
74269;SDS011;62754;48.252;11.654;2023-11-18T13:14:25;2.42;;;0.95;;
74269;SDS011;62754;48.252;11.654;2023-11-18T13:16:54;2.80;;;1.08;;
74269;SDS011;62754;48.252;11.654;2023-11-18T13:19:27;2.58;;;1.00;;
74269;SDS011;62754;48.252;11.654;2023-11-18T13:21:57;2.20;;;0.88;;
74269;SDS011;62754;48.252;11.654;2023-11-18T13:24:24;3.67;;;1.00;;
74269;SDS011;62754;48.252;11.654;2023-11-18T13:26:53;2.35;;;0.75;;
74269;SDS011;62754;48.252;11.654;2023-11-18T13:29:21;4.93;;;2.53;;
74269;SDS011;62754;48.252;11.654;2023-11-18T13:31:47;2.70;;;1.33;;
74269;SDS011;62754;48.252;11.654;2023-11-18T13:34:14;2.50;;;1.02;;
74269;SDS011;62754;48.252;11.654;2023-11-18T13:36:41;4.53;;;1.15;;
74269;SDS011;62754;48.252;11.654;2023-11-18T13:39:09;2.72;;;0.80;;
74269;SDS011;62754;48.252;11.654;2023-11-18T13:41:44;1.33;;;0.70;;
74269;SDS011;62754;48.252;11.654;2023-11-18T13:44:13;4.63;;;0.80;;
74269;SDS011;62754;48.252;11.654;2023-11-18T13:47:09;2.47;;;0.85;;
74269;SDS011;62754;48.252;11.654;2023-11-18T13:49:39;3.05;;;0.70;;
74269;SDS011;62754;48.252;11.654;2023-11-18T13:52:05;1.35;;;0.60;;
74269;SDS011;62754;48.252;11.654;2023-11-18T13:54:40;4.30;;;0.75;;
74269;SDS011;62754;48.252;11.654;2023-11-18T13:57:10;1.25;;;0.60;;
74269;SDS011;62754;48.252;11.654;2023-11-18T14:02:03;1.67;;;0.57;;
74269;SDS011;62754;48.252;11.654;2023-11-18T14:04:30;2.30;;;0.80;;
74269;SDS011;62754;48.252;11.654;2023-11-18T14:07:01;1.88;;;0.70;;
74269;SDS011;62754;48.252;11.654;2023-11-18T14:09:30;1.88;;;0.55;;
74269;SDS011;62754;48.252;11.654;2023-11-18T14:12:00;2.15;;;0.70;;
74269;SDS011;62754;48.252;11.654;2023-11-18T14:14:27;1.52;;;0.60;;
74269;SDS011;62754;48.252;11.654;2023-11-18T14:16:53;1.80;;;0.70;;
74269;SDS011;62754;48.252;11.654;2023-11-18T14:19:24;1.85;;;0.60;;
74269;SDS011;62754;48.252;11.654;2023-11-18T14:21:50;2.00;;;0.82;;
74269;SDS011;62754;48.252;11.654;2023-11-18T14:24:17;1.52;;;0.60;;
74269;SDS011;62754;48.252;11.654;2023-11-18T14:26:45;1.20;;;0.60;;
74269;SDS011;62754;48.252;11.654;2023-11-18T14:29:12;1.48;;;0.50;;
74269;SDS011;62754;48.252;11.654;2023-11-18T14:31:37;1.90;;;0.70;;
74269;SDS011;62754;48.252;11.654;2023-11-18T14:34:04;1.92;;;0.70;;
74269;SDS011;62754;48.252;11.654;2023-11-18T14:36:30;2.25;;;0.88;;
74269;SDS011;62754;48.252;11.654;2023-11-18T14:38:56;2.47;;;0.60;;
74269;SDS011;62754;48.252;11.654;2023-11-18T14:41:25;1.98;;;0.60;;
74269;SDS011;62754;48.252;11.654;2023-11-18T14:43:54;2.15;;;0.70;;
74269;SDS011;62754;48.252;11.654;2023-11-18T14:46:20;1.90;;;0.80;;
74269;SDS011;62754;48.252;11.654;2023-11-18T14:48:46;2.33;;;0.80;;
74269;SDS011;62754;48.252;11.654;2023-11-18T14:51:13;1.45;;;0.75;;
74269;SDS011;62754;48.252;11.654;2023-11-18T14:53:39;3.42;;;0.93;;
74269;SDS011;62754;48.252;11.654;2023-11-18T14:56:05;4.25;;;0.82;;
74269;SDS011;62754;48.252;11.654;2023-11-18T14:58:32;2.70;;;0.70;;
74269;SDS011;62754;48.252;11.654;2023-11-18T15:00:58;2.78;;;0.73;;
74269;SDS011;62754;48.252;11.654;2023-11-18T15:03:25;2.42;;;0.88;;
74269;SDS011;62754;48.252;11.654;2023-11-18T15:05:51;2.83;;;0.98;;
74269;SDS011;62754;48.252;11.654;2023-11-18T15:08:17;2.53;;;0.93;;
74269;SDS011;62754;48.252;11.654;2023-11-18T15:10:43;1.88;;;0.80;;
74269;SDS011;62754;48.252;11.654;2023-11-18T15:13:09;2.35;;;0.80;;
74269;SDS011;62754;48.252;11.654;2023-11-18T15:15:46;3.05;;;1.08;;
74269;SDS011;62754;48.252;11.654;2023-11-18T15:18:12;4.78;;;1.10;;
74269;SDS011;62754;48.252;11.654;2023-11-18T15:20:39;2.45;;;1.00;;
74269;SDS011;62754;48.252;11.654;2023-11-18T15:23:09;1.98;;;1.00;;
74269;SDS011;62754;48.252;11.654;2023-11-18T15:25:36;3.53;;;0.90;;
74269;SDS011;62754;48.252;11.654;2023-11-18T15:28:02;2.15;;;0.93;;
74269;SDS011;62754;48.252;11.654;2023-11-18T15:30:29;2.33;;;1.02;;
74269;SDS011;62754;48.252;11.654;2023-11-18T15:32:55;3.78;;;1.50;;
74269;SDS011;62754;48.252;11.654;2023-11-18T15:35:21;2.38;;;1.10;;
74269;SDS011;62754;48.252;11.654;2023-11-18T15:37:48;3.38;;;1.10;;